createdAt,value
2019-03-29T00:00:00.472Z,72.63
2019-03-29T00:02:29.342Z,72.77
2019-03-29T00:04:58.060Z,73.51
2019-03-29T00:07:39.009Z,73.82
2019-03-29T00:09:57.350Z,73.77
2019-03-29T00:12:26.139Z,74.56
2019-03-29T00:14:54.853Z,74.66
2019-03-29T00:17:23.698Z,74.86
2019-03-29T00:19:52.421Z,74.27
2019-03-29T00:22:23.806Z,74.07
2019-03-29T00:24:53.615Z,73.76
2019-03-29T00:27:22.334Z,73.48
2019-03-29T00:29:51.057Z,74.32
2019-03-29T00:32:19.814Z,74.64
2019-03-29T00:34:48.535Z,74.44
2019-03-29T00:37:17.312Z,74.17
2019-03-29T00:39:46.906Z,74.56
2019-03-29T00:42:16.938Z,74.88
2019-03-29T00:44:45.917Z,74.53
2019-03-29T00:47:14.679Z,75.17
2019-03-29T00:49:43.393Z,75.22
2019-03-29T00:52:12.133Z,74.92
2019-03-29T00:54:40.906Z,74.37
2019-03-29T00:57:09.619Z,73.42
2019-03-29T00:59:38.332Z,73.36
2019-03-29T01:02:07.120Z,73.06
2019-03-29T01:04:35.852Z,73.54
2019-03-29T01:07:04.969Z,74.01
2019-03-29T01:09:34.041Z,74.37
2019-03-29T01:12:02.757Z,74.16
2019-03-29T01:14:31.529Z,74.37
2019-03-29T01:17:00.311Z,73.85
2019-03-29T01:19:29.223Z,74.55
2019-03-29T01:21:58.631Z,73.95
2019-03-29T01:24:27.402Z,74.15
2019-03-29T01:26:56.125Z,74.20
2019-03-29T01:29:24.840Z,74.17
2019-03-29T01:31:53.701Z,72.55
2019-03-29T01:34:22.434Z,71.62
2019-03-29T01:36:51.144Z,72.33
2019-03-29T01:39:20.037Z,72.80
2019-03-29T01:41:48.763Z,73.28
2019-03-29T01:44:17.480Z,73.66
2019-03-29T01:46:46.242Z,74.39
2019-03-29T01:49:15.882Z,74.31
2019-03-29T01:51:44.762Z,74.10
2019-03-29T01:54:13.841Z,75.04
2019-03-29T01:56:42.569Z,74.87
2019-03-29T01:59:11.289Z,75.27
2019-03-29T02:01:40.146Z,75.16
2019-03-29T02:04:08.877Z,75.10
2019-03-29T02:06:37.606Z,75.38
2019-03-29T02:09:06.657Z,74.73
2019-03-29T02:11:35.382Z,74.42
2019-03-29T02:14:04.211Z,74.60
2019-03-29T02:16:33.042Z,74.92
2019-03-29T02:19:01.765Z,74.62
2019-03-29T02:21:30.905Z,74.63
2019-03-29T02:23:59.791Z,74.53
2019-03-29T02:26:28.522Z,74.69
2019-03-29T02:28:57.247Z,74.12
2019-03-29T02:31:27.795Z,73.55
2019-03-29T02:33:56.791Z,73.22
2019-03-29T02:36:25.517Z,73.76
2019-03-29T02:38:56.254Z,73.65
2019-03-29T02:41:24.735Z,73.37
2019-03-29T02:43:53.456Z,73.09
2019-03-29T02:46:22.252Z,72.69
2019-03-29T02:48:50.981Z,72.96
2019-03-29T02:51:19.702Z,73.05
2019-03-29T02:53:48.515Z,73.16
2019-03-29T02:56:17.270Z,73.51
2019-03-29T02:58:45.969Z,73.46
2019-03-29T03:01:14.767Z,73.48
2019-03-29T03:03:43.487Z,73.28
2019-03-29T03:06:12.204Z,73.10
2019-03-29T03:08:40.995Z,73.07
2019-03-29T03:11:09.717Z,73.19
2019-03-29T03:13:38.443Z,73.40
2019-03-29T03:16:07.319Z,73.03
2019-03-29T03:18:36.315Z,73.57
2019-03-29T03:21:05.039Z,74.00
2019-03-29T03:23:33.836Z,74.29
2019-03-29T03:26:02.561Z,75.21
2019-03-29T03:28:31.286Z,75.61
2019-03-29T03:31:00.176Z,76.00
2019-03-29T03:33:28.906Z,76.53
2019-03-29T03:35:57.647Z,76.93
2019-03-29T03:38:26.524Z,77.27
2019-03-29T03:40:55.229Z,77.45
2019-03-29T03:43:23.963Z,78.24
2019-03-29T03:45:52.778Z,78.62
2019-03-29T03:48:21.504Z,78.85
2019-03-29T03:50:50.235Z,79.17
2019-03-29T03:53:19.112Z,78.98
2019-03-29T03:55:47.837Z,79.06
2019-03-29T03:58:17.979Z,78.95
2019-03-29T04:00:55.312Z,77.61
2019-03-29T04:03:24.611Z,77.86
2019-03-29T04:05:53.355Z,79.81
2019-03-29T04:08:22.317Z,80.09
2019-03-29T04:10:51.051Z,80.59
2019-03-29T04:13:19.776Z,81.42
2019-03-29T04:15:48.617Z,81.01
2019-03-29T04:18:17.397Z,80.54
2019-03-29T04:20:46.226Z,79.97
2019-03-29T04:23:15.105Z,79.75
2019-03-29T04:25:43.857Z,77.91
2019-03-29T04:28:12.697Z,78.07
2019-03-29T04:30:41.473Z,76.59
2019-03-29T04:33:11.308Z,77.04
2019-03-29T04:35:40.420Z,78.65
2019-03-29T04:38:09.381Z,78.95
2019-03-29T04:40:38.103Z,78.85
2019-03-29T04:43:06.839Z,78.09
2019-03-29T04:45:36.183Z,78.23
2019-03-29T04:48:06.140Z,78.89
2019-03-29T04:50:34.846Z,78.93
2019-03-29T04:53:03.614Z,78.13
2019-03-29T04:55:32.344Z,77.97
2019-03-29T04:58:01.070Z,77.34
2019-03-29T05:00:30.106Z,77.59
2019-03-29T05:02:58.833Z,77.15
2019-03-29T05:05:27.561Z,76.41
2019-03-29T05:07:56.445Z,75.50
2019-03-29T05:10:25.176Z,75.65
2019-03-29T05:12:53.906Z,75.03
2019-03-29T05:15:22.688Z,74.62
2019-03-29T05:17:51.425Z,74.10
2019-03-29T05:20:20.146Z,72.96
2019-03-29T05:22:48.944Z,72.35
2019-03-29T05:25:17.667Z,71.37
2019-03-29T05:27:46.395Z,71.14
2019-03-29T05:30:15.582Z,71.67
2019-03-29T05:32:44.312Z,72.24
2019-03-29T05:35:13.037Z,71.45
2019-03-29T05:37:41.817Z,72.26
2019-03-29T05:40:10.554Z,71.52
2019-03-29T05:42:39.280Z,71.75
2019-03-29T05:45:08.329Z,71.10
2019-03-29T05:47:37.068Z,70.45
2019-03-29T05:50:07.516Z,68.75
2019-03-29T05:52:48.777Z,68.33
2019-03-29T05:55:17.496Z,68.25
2019-03-29T05:57:46.234Z,68.54
2019-03-29T06:00:16.926Z,69.06
2019-03-29T06:02:45.657Z,68.13
2019-03-29T06:05:14.394Z,68.12
2019-03-29T06:07:43.278Z,68.56
2019-03-29T06:10:12.307Z,68.06
2019-03-29T06:12:41.053Z,66.56
2019-03-29T06:15:10.013Z,64.50
2019-03-29T06:17:48.668Z,66.28
2019-03-29T06:20:09.692Z,64.22
2019-03-29T06:22:41.878Z,62.83
2019-03-29T06:25:12.310Z,62.54
2019-03-29T06:27:41.024Z,61.82
2019-03-29T06:30:10.407Z,60.00
2019-03-29T06:32:39.137Z,58.43
2019-03-29T06:35:08.380Z,57.60
2019-03-29T06:37:39.529Z,54.48
2019-03-29T06:40:11.160Z,53.50
2019-03-29T06:42:41.694Z,52.21
2019-03-29T06:45:11.110Z,51.06
2019-03-29T06:47:39.837Z,50.71
2019-03-29T06:50:08.655Z,51.27
2019-03-29T06:52:37.427Z,50.58
2019-03-29T06:55:06.539Z,49.75
2019-03-29T06:57:35.272Z,49.49
2019-03-29T07:00:04.864Z,48.35
2019-03-29T07:02:33.583Z,48.25
2019-03-29T07:05:02.314Z,46.30
2019-03-29T07:07:31.182Z,45.54
2019-03-29T07:09:59.913Z,45.18
2019-03-29T07:12:28.628Z,45.46
2019-03-29T07:14:57.373Z,45.03
2019-03-29T07:17:26.154Z,44.25
2019-03-29T07:19:54.886Z,44.71
2019-03-29T07:22:23.683Z,42.73
2019-03-29T07:24:52.395Z,43.53
2019-03-29T07:27:21.942Z,42.68
2019-03-29T07:29:50.731Z,43.06
2019-03-29T07:32:19.448Z,43.08
2019-03-29T07:34:49.323Z,42.38
2019-03-29T07:37:18.627Z,41.40
2019-03-29T07:39:47.349Z,42.12
2019-03-29T07:42:16.070Z,43.16
2019-03-29T07:44:44.963Z,43.27
2019-03-29T07:47:13.685Z,40.74
2019-03-29T07:49:42.407Z,39.56
2019-03-29T07:52:11.192Z,40.96
2019-03-29T07:54:39.916Z,40.78
2019-03-29T07:57:08.639Z,41.64
2019-03-29T07:59:37.731Z,40.46
2019-03-29T08:02:06.465Z,42.56
2019-03-29T08:04:35.191Z,41.15
2019-03-29T08:07:03.966Z,41.19
2019-03-29T08:09:32.680Z,39.54
2019-03-29T08:12:01.418Z,40.02
2019-03-29T08:14:30.375Z,40.56
2019-03-29T08:16:59.174Z,39.95
2019-03-29T08:19:27.891Z,40.39
2019-03-29T08:21:57.951Z,38.42
2019-03-29T08:24:26.870Z,38.38
2019-03-29T08:26:55.589Z,39.09
2019-03-29T08:29:24.684Z,38.08
2019-03-29T08:31:55.489Z,38.66
2019-03-29T08:34:23.860Z,37.96
2019-03-29T08:36:53.001Z,36.84
2019-03-29T08:39:27.873Z,37.79
2019-03-29T08:42:00.081Z,38.04
2019-03-29T08:44:22.656Z,36.74
2019-03-29T08:46:51.391Z,40.08
2019-03-29T08:49:20.113Z,36.00
2019-03-29T08:51:48.918Z,35.34
2019-03-29T08:54:17.646Z,34.49
2019-03-29T08:56:46.370Z,33.82
2019-03-29T08:59:17.451Z,34.06
2019-03-29T09:01:45.916Z,34.66
2019-03-29T09:04:14.638Z,33.46
2019-03-29T09:06:53.325Z,33.60
2019-03-29T09:09:14.154Z,33.97
2019-03-29T09:11:42.879Z,33.79
2019-03-29T09:14:11.773Z,33.49
2019-03-29T09:16:40.499Z,32.91
2019-03-29T09:19:09.226Z,32.63
2019-03-29T09:21:38.369Z,32.05
2019-03-29T09:24:20.742Z,33.01
2019-03-29T09:26:37.530Z,33.64
2019-03-29T09:29:06.398Z,35.49
2019-03-29T09:31:35.133Z,32.24
2019-03-29T09:34:03.860Z,30.71
2019-03-29T09:36:32.740Z,31.49
2019-03-29T09:39:01.478Z,31.59
2019-03-29T09:41:30.205Z,31.01
2019-03-29T09:43:58.982Z,30.55
2019-03-29T09:46:27.687Z,32.95
2019-03-29T09:48:56.409Z,30.83
2019-03-29T09:51:25.335Z,31.44
2019-03-29T09:53:54.056Z,32.77
2019-03-29T09:56:22.785Z,33.09
2019-03-29T09:58:51.591Z,30.65
2019-03-29T10:01:20.898Z,30.75
2019-03-29T10:03:49.819Z,29.94
2019-03-29T10:06:18.697Z,30.88
2019-03-29T10:08:47.416Z,30.05
2019-03-29T10:11:16.143Z,28.97
2019-03-29T10:13:45.398Z,28.84
2019-03-29T10:16:14.128Z,28.28
2019-03-29T10:18:42.846Z,27.93
2019-03-29T10:21:11.616Z,30.13
2019-03-29T10:23:40.344Z,30.85
2019-03-29T10:26:09.075Z,31.53
2019-03-29T10:28:37.941Z,32.32
2019-03-29T10:31:06.676Z,30.88
2019-03-29T10:33:35.402Z,32.00
2019-03-29T10:36:04.180Z,29.96
2019-03-29T10:38:32.906Z,28.64
2019-03-29T10:41:01.627Z,29.39
2019-03-29T10:43:30.752Z,28.46
2019-03-29T10:45:59.597Z,27.93
2019-03-29T10:48:28.323Z,29.50
2019-03-29T10:50:57.318Z,28.96
2019-03-29T10:53:28.716Z,30.83
2019-03-29T10:55:56.489Z,30.75
2019-03-29T10:58:25.253Z,29.84
2019-03-29T11:00:54.036Z,28.40
2019-03-29T11:03:22.766Z,29.48
2019-03-29T11:05:51.618Z,31.00
2019-03-29T11:08:20.334Z,29.95
2019-03-29T11:10:49.056Z,29.36
2019-03-29T11:13:18.004Z,29.72
2019-03-29T11:15:46.842Z,30.29
2019-03-29T11:18:15.874Z,29.82
2019-03-29T11:20:44.747Z,29.72
2019-03-29T11:23:13.473Z,29.64
2019-03-29T11:25:42.198Z,29.98
2019-03-29T11:28:10.980Z,30.01
2019-03-29T11:30:42.406Z,28.32
2019-03-29T11:33:10.159Z,28.96
2019-03-29T11:35:38.991Z,28.77
2019-03-29T11:38:07.730Z,29.32
2019-03-29T11:40:36.448Z,30.50
2019-03-29T11:43:05.631Z,32.53
2019-03-29T11:45:34.749Z,30.43
2019-03-29T11:48:08.767Z,32.04
2019-03-29T11:50:34.011Z,31.55
2019-03-29T11:53:02.733Z,31.89
2019-03-29T11:55:31.466Z,32.44
2019-03-29T11:58:00.334Z,31.39
2019-03-29T12:00:36.640Z,32.80
2019-03-29T12:03:09.194Z,32.08
2019-03-29T12:05:37.268Z,32.68
2019-03-29T12:08:06.487Z,32.65
2019-03-29T12:10:35.450Z,32.95
2019-03-29T12:13:04.874Z,33.83
2019-03-29T12:15:33.602Z,33.95
2019-03-29T12:18:02.466Z,34.92
2019-03-29T12:20:31.194Z,34.02
2019-03-29T12:23:00.018Z,36.28
2019-03-29T12:25:29.173Z,32.48
2019-03-29T12:27:57.891Z,32.36
2019-03-29T12:30:31.940Z,33.49
2019-03-29T12:32:57.453Z,34.81
2019-03-29T12:35:26.174Z,35.48
2019-03-29T12:37:54.930Z,34.85
2019-03-29T12:40:23.818Z,35.53
2019-03-29T12:42:52.547Z,36.27
2019-03-29T12:45:22.739Z,36.56
2019-03-29T12:47:51.611Z,37.29
2019-03-29T12:50:20.333Z,36.88
2019-03-29T12:52:49.066Z,37.08
2019-03-29T12:55:18.364Z,36.88
2019-03-29T12:57:47.101Z,39.62
2019-03-29T13:00:16.438Z,39.07
2019-03-29T13:02:45.297Z,37.54
2019-03-29T13:05:14.121Z,37.63
2019-03-29T13:07:42.852Z,37.86
2019-03-29T13:10:12.118Z,38.23
2019-03-29T13:12:40.846Z,37.53
2019-03-29T13:15:09.969Z,35.39
2019-03-29T13:17:39.358Z,35.87
2019-03-29T13:20:08.788Z,36.06
2019-03-29T13:22:37.619Z,35.15
2019-03-29T13:25:07.833Z,34.78
2019-03-29T13:27:36.597Z,34.13
2019-03-29T13:30:07.493Z,35.68
2019-03-29T13:32:36.349Z,35.51
2019-03-29T13:35:06.772Z,34.47
2019-03-29T13:37:35.497Z,34.39
2019-03-29T13:40:09.696Z,34.61
2019-03-29T13:42:38.447Z,33.87
2019-03-29T13:45:08.672Z,33.54
2019-03-29T13:47:37.675Z,34.00
2019-03-29T13:50:09.002Z,35.06
2019-03-29T13:52:48.439Z,34.29
2019-03-29T13:55:17.184Z,34.41
2019-03-29T13:57:48.214Z,35.12
2019-03-29T14:00:18.091Z,34.71
2019-03-29T14:02:46.811Z,34.65
2019-03-29T14:05:15.636Z,35.16
2019-03-29T14:07:44.507Z,36.04
2019-03-29T14:10:13.728Z,36.33
2019-03-29T14:12:42.454Z,35.94
2019-03-29T14:15:12.555Z,36.25
2019-03-29T14:17:41.280Z,37.01
2019-03-29T14:20:10.506Z,36.66
2019-03-29T14:22:39.465Z,36.83
2019-03-29T14:25:09.703Z,37.43
2019-03-29T14:27:38.512Z,36.92
2019-03-29T14:30:08.876Z,36.79
2019-03-29T14:32:37.597Z,36.66
2019-03-29T14:35:08.440Z,36.81
2019-03-29T14:37:37.229Z,37.07
2019-03-29T14:40:08.257Z,36.15
2019-03-29T14:42:36.995Z,36.24
2019-03-29T14:45:07.437Z,36.01
2019-03-29T14:47:43.301Z,34.93
2019-03-29T14:50:08.410Z,35.11
2019-03-29T14:52:37.306Z,35.28
2019-03-29T14:55:07.035Z,36.68
2019-03-29T14:57:35.768Z,37.67
2019-03-29T15:00:07.061Z,36.90
2019-03-29T15:02:35.793Z,37.34
2019-03-29T15:05:07.009Z,37.37
2019-03-29T15:07:36.982Z,37.89
2019-03-29T15:10:14.435Z,37.63
2019-03-29T15:12:43.313Z,37.57
2019-03-29T15:15:12.039Z,36.99
2019-03-29T15:17:40.762Z,37.92
2019-03-29T15:20:09.923Z,37.98
2019-03-29T15:22:38.649Z,39.30
2019-03-29T15:25:07.477Z,39.51
2019-03-29T15:27:36.342Z,39.67
2019-03-29T15:30:07.475Z,39.41
2019-03-29T15:32:36.210Z,39.91
2019-03-29T15:35:06.595Z,40.81
2019-03-29T15:37:35.322Z,40.26
2019-03-29T15:40:05.654Z,39.78
2019-03-29T15:42:34.975Z,39.34
2019-03-29T15:45:04.799Z,40.17
2019-03-29T15:47:33.598Z,39.90
2019-03-29T15:50:02.753Z,39.51
2019-03-29T15:52:31.495Z,38.68
2019-03-29T15:55:00.380Z,38.97
2019-03-29T15:57:29.280Z,38.90
2019-03-29T15:59:58.010Z,39.53
2019-03-29T16:02:26.753Z,40.64
2019-03-29T16:04:55.666Z,40.68
2019-03-29T16:07:24.396Z,40.11
2019-03-29T16:09:53.127Z,41.13
2019-03-29T16:12:22.030Z,41.03
2019-03-29T16:14:50.760Z,41.41
2019-03-29T16:17:19.496Z,40.89
2019-03-29T16:19:48.263Z,40.92
2019-03-29T16:22:17.011Z,40.28
2019-03-29T16:24:45.759Z,40.36
2019-03-29T16:27:14.625Z,40.96
2019-03-29T16:29:43.448Z,41.30
2019-03-29T16:32:12.181Z,42.37
2019-03-29T16:34:41.053Z,44.07
2019-03-29T16:37:09.772Z,44.67
2019-03-29T16:39:38.495Z,44.33
2019-03-29T16:42:07.378Z,44.96
2019-03-29T16:44:36.094Z,44.82
2019-03-29T16:47:04.820Z,45.00
2019-03-29T16:49:33.691Z,45.12
2019-03-29T16:52:02.427Z,45.09
2019-03-29T16:54:31.153Z,45.90
2019-03-29T16:56:59.949Z,46.44
2019-03-29T16:59:28.681Z,46.61
2019-03-29T17:01:57.416Z,46.94
2019-03-29T17:04:26.203Z,47.09
2019-03-29T17:06:54.930Z,47.25
2019-03-29T17:09:23.653Z,46.94
2019-03-29T17:11:52.529Z,47.44
2019-03-29T17:14:21.247Z,47.90
2019-03-29T17:16:52.801Z,48.29
2019-03-29T17:19:20.476Z,48.96
2019-03-29T17:21:49.202Z,49.24
2019-03-29T17:24:17.938Z,49.27
2019-03-29T17:26:46.882Z,49.00
2019-03-29T17:29:18.102Z,48.70
2019-03-29T17:31:46.829Z,48.91
2019-03-29T17:34:16.416Z,49.31
2019-03-29T17:36:45.151Z,49.00
2019-03-29T17:39:13.888Z,49.42
2019-03-29T17:41:42.747Z,49.88
2019-03-29T17:44:11.476Z,49.95
2019-03-29T17:46:40.267Z,50.02
2019-03-29T17:49:09.075Z,48.48
2019-03-29T17:51:37.795Z,48.16
2019-03-29T17:54:06.523Z,48.34
2019-03-29T17:56:35.325Z,48.51
2019-03-29T17:59:04.055Z,48.66
2019-03-29T18:01:32.776Z,49.52
2019-03-29T18:04:01.539Z,49.18
2019-03-29T18:06:30.276Z,49.04
2019-03-29T18:08:59.003Z,49.59
2019-03-29T18:11:28.054Z,49.95
2019-03-29T18:13:56.782Z,49.90
2019-03-29T18:16:30.868Z,50.92
2019-03-29T18:18:56.150Z,50.44
2019-03-29T18:21:24.877Z,50.33
2019-03-29T18:23:53.618Z,50.59
2019-03-29T18:26:22.489Z,51.01
2019-03-29T18:28:51.219Z,51.66
2019-03-29T18:31:20.019Z,52.61
2019-03-29T18:33:49.086Z,53.54
2019-03-29T18:36:17.818Z,54.23
2019-03-29T18:38:49.044Z,55.01
2019-03-29T18:41:17.895Z,55.47
2019-03-29T18:43:46.614Z,55.09
2019-03-29T18:46:15.337Z,54.73
2019-03-29T18:48:46.921Z,54.74
2019-03-29T18:51:15.656Z,55.35
2019-03-29T18:53:44.385Z,55.04
2019-03-29T18:56:13.175Z,54.51
2019-03-29T18:58:41.898Z,54.22
2019-03-29T19:01:10.724Z,54.09
2019-03-29T19:03:39.602Z,54.26
2019-03-29T19:06:08.326Z,54.58
2019-03-29T19:08:37.051Z,54.87
2019-03-29T19:11:05.929Z,54.79
2019-03-29T19:13:34.658Z,54.91
2019-03-29T19:16:03.394Z,55.46
2019-03-29T19:18:32.206Z,56.38
2019-03-29T19:21:00.934Z,56.79
2019-03-29T19:23:29.659Z,57.08
2019-03-29T19:25:58.468Z,57.12
2019-03-29T19:28:27.182Z,57.49
2019-03-29T19:30:55.901Z,57.53
2019-03-29T19:33:24.716Z,57.84
2019-03-29T19:35:53.438Z,56.99
2019-03-29T19:38:22.148Z,56.51
2019-03-29T19:40:51.270Z,56.69
2019-03-29T19:43:20.289Z,56.88
2019-03-29T19:45:49.178Z,57.05
2019-03-29T19:48:18.247Z,57.86
2019-03-29T19:50:47.276Z,58.51
2019-03-29T19:53:17.315Z,58.57
2019-03-29T19:55:46.197Z,58.75
2019-03-29T19:58:14.991Z,58.70
2019-03-29T20:00:44.457Z,58.66
2019-03-29T20:03:13.319Z,58.85
2019-03-29T20:05:42.022Z,59.25
2019-03-29T20:08:10.740Z,59.34
2019-03-29T20:10:39.802Z,59.37
2019-03-29T20:13:08.516Z,58.29
2019-03-29T20:15:37.336Z,58.56
2019-03-29T20:18:06.396Z,59.08
2019-03-29T20:20:35.119Z,58.11
2019-03-29T20:23:06.997Z,59.40
2019-03-29T20:25:35.781Z,61.85
2019-03-29T20:28:04.711Z,62.47
2019-03-29T20:30:33.415Z,62.52
2019-03-29T20:33:02.614Z,63.70
2019-03-29T20:35:31.471Z,64.27
2019-03-29T20:38:00.207Z,64.66
2019-03-29T20:40:31.965Z,65.94
2019-03-29T20:42:59.448Z,66.75
2019-03-29T20:45:28.161Z,67.03
2019-03-29T20:47:57.023Z,67.84
2019-03-29T20:50:26.341Z,68.62
2019-03-29T20:52:55.113Z,68.38
2019-03-29T20:55:23.957Z,69.02
2019-03-29T20:57:52.680Z,69.54
2019-03-29T21:00:21.490Z,69.55
2019-03-29T21:02:50.355Z,69.82
2019-03-29T21:05:19.074Z,70.29
2019-03-29T21:07:47.787Z,70.67
2019-03-29T21:10:16.752Z,70.83
2019-03-29T21:12:45.513Z,71.27
2019-03-29T21:15:14.361Z,71.11
2019-03-29T21:17:55.831Z,71.14
2019-03-29T21:20:14.637Z,71.23
2019-03-29T21:22:43.354Z,71.76
2019-03-29T21:25:12.427Z,71.95
2019-03-29T21:27:41.143Z,72.17
2019-03-29T21:30:11.865Z,72.31
2019-03-29T21:32:40.662Z,72.06
2019-03-29T21:35:09.377Z,72.85
2019-03-29T21:37:38.102Z,73.27
2019-03-29T21:40:08.772Z,73.28
2019-03-29T21:42:37.698Z,73.62
2019-03-29T21:45:08.110Z,73.87
2019-03-29T21:47:36.869Z,74.36
2019-03-29T21:50:08.086Z,74.30
2019-03-29T21:52:36.918Z,74.75
2019-03-29T21:55:07.189Z,74.77
2019-03-29T21:57:35.915Z,75.34
2019-03-29T22:00:12.397Z,75.53
2019-03-29T22:02:41.116Z,75.40
2019-03-29T22:05:10.707Z,75.59
2019-03-29T22:07:39.923Z,75.99
2019-03-29T22:10:10.147Z,75.89
2019-03-29T22:12:38.959Z,76.17
2019-03-29T22:15:08.827Z,76.22
2019-03-29T22:17:53.700Z,76.92
2019-03-29T22:20:18.153Z,77.00
2019-03-29T22:22:47.184Z,77.52
2019-03-29T22:25:16.073Z,78.24
2019-03-29T22:27:44.944Z,79.49
2019-03-29T22:30:17.867Z,80.53
2019-03-29T22:32:53.629Z,80.43
2019-03-29T22:35:22.356Z,80.61
2019-03-29T22:37:51.083Z,80.82
2019-03-29T22:40:20.314Z,81.19
2019-03-29T22:42:49.716Z,80.86
2019-03-29T22:45:18.439Z,80.35
2019-03-29T22:47:47.298Z,80.02
2019-03-29T22:50:16.125Z,78.75
2019-03-29T22:52:44.839Z,77.71
2019-03-29T22:55:13.636Z,77.70
2019-03-29T22:57:42.614Z,76.99
2019-03-29T23:00:16.969Z,77.79
2019-03-29T23:02:45.946Z,77.85
2019-03-29T23:05:14.859Z,76.66
2019-03-29T23:07:43.585Z,76.90
2019-03-29T23:10:12.554Z,77.25
2019-03-29T23:12:41.283Z,78.38
2019-03-29T23:15:10.022Z,79.00
2019-03-29T23:17:38.952Z,79.31
2019-03-29T23:20:07.867Z,78.78
2019-03-29T23:22:36.584Z,78.93
2019-03-29T23:25:06.341Z,78.68
2019-03-29T23:27:35.359Z,78.57
2019-03-29T23:30:05.786Z,78.74
2019-03-29T23:32:34.860Z,78.91
2019-03-29T23:35:04.186Z,78.94
2019-03-29T23:37:32.911Z,78.69
2019-03-29T23:40:01.696Z,78.12
2019-03-29T23:42:30.420Z,78.81
2019-03-29T23:44:59.138Z,79.50
2019-03-29T23:47:27.999Z,80.19
2019-03-29T23:49:56.714Z,80.57
2019-03-29T23:52:25.532Z,80.64
2019-03-29T23:54:54.417Z,80.75
2019-03-29T23:57:23.131Z,80.92
2019-03-29T23:59:51.910Z,81.15
